createdAt,value
2022-09-06T00:02:27.087Z,101315.45
2022-09-06T00:05:19.478Z,101311.56
2022-09-06T00:08:12.161Z,101313.05
2022-09-06T00:11:05.420Z,101312.81
2022-09-06T00:13:57.370Z,101310.72
2022-09-06T00:16:49.605Z,101308.87
2022-09-06T00:19:42.751Z,101317.59
2022-09-06T00:22:33.670Z,101314.54
2022-09-06T00:25:26.416Z,101310.20
2022-09-06T00:28:20.017Z,101302.74
2022-09-06T00:31:17.563Z,101304.38
2022-09-06T00:34:10.123Z,101297.72
2022-09-06T00:37:02.734Z,101296.91
2022-09-06T00:39:55.132Z,101293.18
2022-09-06T00:42:47.408Z,101293.18
2022-09-06T00:45:41.002Z,101303.94
2022-09-06T00:48:33.526Z,101298.17
2022-09-06T00:51:28.541Z,101293.48
2022-09-06T00:54:20.767Z,101296.38
2022-09-06T00:57:14.913Z,101291.83
2022-09-06T01:00:10.353Z,101279.20
2022-09-06T01:03:03.615Z,101283.53
2022-09-06T01:06:06.097Z,101289.74
2022-09-06T01:09:08.950Z,101291.83
2022-09-06T01:12:12.688Z,101289.35
2022-09-06T01:15:16.120Z,101292.28
2022-09-06T01:18:22.352Z,101289.80
2022-09-06T01:21:35.907Z,101288.99
2022-09-06T01:24:59.872Z,101280.33
2022-09-06T01:28:18.211Z,101287.80
2022-09-06T01:31:22.717Z,101284.50
2022-09-06T01:34:25.609Z,101280.77
2022-09-06T01:37:21.764Z,101284.50
2022-09-06T01:40:14.262Z,101281.81
2022-09-06T01:43:10.755Z,101291.97
2022-09-06T01:46:13.181Z,101296.14
2022-09-06T01:49:25.624Z,101293.66
2022-09-06T01:52:23.794Z,101293.06
2022-09-06T01:55:25.881Z,101287.92
2022-09-06T01:58:35.924Z,101277.02
2022-09-06T02:01:35.817Z,101261.09
2022-09-06T02:04:32.672Z,101262.98
2022-09-06T02:07:27.771Z,101265.44
2022-09-06T02:10:27.411Z,101257.81
2022-09-06T02:13:24.751Z,101249.98
2022-09-06T02:16:19.719Z,101251.84
2022-09-06T02:19:16.338Z,101246.47
2022-09-06T02:22:13.163Z,101247.51
2022-09-06T02:25:13.129Z,101257.45
2022-09-06T02:28:09.111Z,101245.06
2022-09-06T02:31:04.066Z,101244.66
2022-09-06T02:33:57.875Z,101246.98
2022-09-06T02:36:50.790Z,101251.16
2022-09-06T02:39:44.085Z,101261.30
2022-09-06T02:42:36.703Z,101259.66
2022-09-06T02:45:29.868Z,101260.70
2022-09-06T02:48:22.975Z,101251.80
2022-09-06T02:51:15.572Z,101255.77
2022-09-06T02:54:09.039Z,101260.55
2022-09-06T02:57:01.684Z,101262.39
2022-09-06T02:59:54.126Z,101270.45
2022-09-06T03:02:46.767Z,101266.36
2022-09-06T03:05:37.369Z,101267.39
2022-09-06T03:08:33.771Z,101265.75
2022-09-06T03:11:25.626Z,101263.50
2022-09-06T03:14:19.635Z,101265.35
2022-09-06T03:17:11.233Z,101266.39
2022-09-06T03:20:04.231Z,101272.00
2022-09-06T03:22:56.615Z,101271.60
2022-09-06T03:25:49.955Z,101268.55
2022-09-06T03:28:43.303Z,101274.13
2022-09-06T03:31:35.621Z,101277.64
2022-09-06T03:34:22.097Z,101286.73
2022-09-06T03:37:14.713Z,101284.26
2022-09-06T03:40:09.833Z,101281.57
2022-09-06T03:43:02.731Z,101280.77
2022-09-06T03:45:57.226Z,101280.77
2022-09-06T03:48:50.276Z,101275.59
2022-09-06T03:51:42.083Z,101269.42
2022-09-06T03:54:34.144Z,101267.77
2022-09-06T03:57:26.523Z,101284.70
2022-09-06T04:00:21.020Z,101291.74
2022-09-06T04:03:13.573Z,101295.90
2022-09-06T04:06:06.287Z,101297.98
2022-09-06T04:08:58.869Z,101293.05
2022-09-06T04:11:50.900Z,101290.36
2022-09-06T04:14:43.541Z,101296.34
2022-09-06T04:17:35.546Z,101297.98
2022-09-06T04:20:28.318Z,101297.98
2022-09-06T04:23:21.242Z,101302.31
2022-09-06T04:26:13.737Z,101302.31
2022-09-06T04:29:06.048Z,101295.06
2022-09-06T04:31:58.684Z,101302.74
2022-09-06T04:34:51.929Z,101299.22
2022-09-06T04:37:45.212Z,101305.63
2022-09-06T04:40:37.673Z,101312.64
2022-09-06T04:43:30.109Z,101313.91
2022-09-06T04:46:25.193Z,101310.39
2022-09-06T04:49:17.646Z,101312.27
2022-09-06T04:52:08.080Z,101322.16
2022-09-06T04:55:00.294Z,101321.36
2022-09-06T04:57:53.418Z,101326.73
2022-09-06T05:00:45.542Z,101323.61
2022-09-06T05:03:37.508Z,101324.22
2022-09-06T05:06:30.458Z,101323.18
2022-09-06T05:09:22.965Z,101316.54
2022-09-06T05:12:16.985Z,101316.34
2022-09-06T05:15:13.769Z,101310.97
2022-09-06T05:18:12.852Z,101308.66
2022-09-06T05:21:07.842Z,101310.30
2022-09-06T05:23:58.830Z,101310.10
2022-09-06T05:26:50.966Z,101305.37
2022-09-06T05:29:43.202Z,101304.33
2022-09-06T05:32:33.802Z,101311.11
2022-09-06T05:35:26.565Z,101312.76
2022-09-06T05:38:19.212Z,101308.83
2022-09-06T05:41:11.220Z,101320.17
2022-09-06T05:44:03.943Z,101311.69
2022-09-06T05:46:56.211Z,101317.66
2022-09-06T05:49:49.618Z,101308.33
2022-09-06T05:52:41.739Z,101316.78
2022-09-06T05:55:33.606Z,101314.70
2022-09-06T05:58:25.648Z,101306.21
2022-09-06T06:01:22.725Z,101303.08
2022-09-06T06:04:15.229Z,101302.65
2022-09-06T06:07:05.759Z,101301.16
2022-09-06T06:09:58.923Z,101310.63
2022-09-06T06:12:51.301Z,101307.51
2022-09-06T06:15:44.928Z,101305.22
2022-09-06T06:18:39.563Z,101307.02
2022-09-06T06:21:33.167Z,101309.88
2022-09-06T06:24:26.759Z,101316.00
2022-09-06T06:27:18.479Z,101311.15
2022-09-06T06:30:18.202Z,101315.03
2022-09-06T06:33:12.139Z,101313.94
2022-09-06T06:36:07.082Z,101304.69
2022-09-06T06:39:00.026Z,101308.06
2022-09-06T06:41:52.604Z,101310.59
2022-09-06T06:44:56.378Z,101315.59
2022-09-06T06:47:53.420Z,101310.04
2022-09-06T06:50:47.613Z,101315.24
2022-09-06T06:53:40.485Z,101312.82
2022-09-06T06:56:35.138Z,101312.03
2022-09-06T06:59:28.152Z,101313.80
2022-09-06T07:02:20.395Z,101316.20
2022-09-06T07:08:25.598Z,101315.52
2022-09-06T07:11:21.728Z,101314.13
2022-09-06T07:14:16.870Z,101319.55
2022-09-06T07:17:09.418Z,101313.80
2022-09-06T07:20:16.925Z,101311.81
2022-09-06T07:26:24.041Z,101317.30
2022-09-06T07:29:17.752Z,101314.86
2022-09-06T07:35:09.851Z,101325.02
2022-09-06T07:38:04.951Z,101331.33
2022-09-06T07:40:59.411Z,101337.51
2022-09-06T07:43:54.589Z,101333.14
2022-09-06T07:46:47.103Z,101337.10
2022-09-06T07:49:40.299Z,101340.57
2022-09-06T07:55:44.533Z,101339.13
2022-09-06T07:58:36.066Z,101339.56
2022-09-06T08:01:34.459Z,101345.63
2022-09-06T08:04:27.025Z,101346.30
2022-09-06T08:10:29.895Z,101336.32
2022-09-06T08:13:22.253Z,101340.02
2022-09-06T08:16:17.173Z,101334.28
2022-09-06T08:19:12.468Z,101329.59
2022-09-06T08:22:05.394Z,101331.19
2022-09-06T08:24:58.291Z,101327.48
2022-09-06T08:27:50.279Z,101329.26
2022-09-06T08:30:42.924Z,101325.86
2022-09-06T08:33:36.945Z,101326.31
2022-09-06T08:36:29.832Z,101325.37
2022-09-06T08:39:22.095Z,101334.69
2022-09-06T08:42:15.744Z,101328.82
2022-09-06T08:45:12.742Z,101325.34
2022-09-06T08:48:05.454Z,101315.42
2022-09-06T08:51:21.760Z,101312.50
2022-09-06T08:54:20.503Z,101307.74
2022-09-06T08:57:23.235Z,101301.11
2022-09-06T09:00:16.695Z,101296.57
2022-09-06T09:03:16.629Z,101295.89
2022-09-06T09:06:11.449Z,101289.52
2022-09-06T09:09:08.562Z,101296.95
2022-09-06T09:12:02.825Z,101288.08
2022-09-06T09:15:01.846Z,101288.13
2022-09-06T09:17:55.406Z,101280.05
2022-09-06T09:20:47.891Z,101283.89
2022-09-06T09:23:40.490Z,101276.85
2022-09-06T09:26:38.692Z,101276.07
2022-09-06T09:29:35.659Z,101270.94
2022-09-06T09:32:36.118Z,101277.27
2022-09-06T09:35:34.518Z,101263.97
2022-09-06T09:38:31.077Z,101262.36
2022-09-06T09:41:33.285Z,101266.19
2022-09-06T09:44:29.280Z,101261.06
2022-09-06T09:47:29.266Z,101255.89
2022-09-06T09:50:29.423Z,101255.90
2022-09-06T09:53:24.351Z,101253.18
2022-09-06T09:56:19.105Z,101250.49
2022-09-06T09:59:27.935Z,101245.05
2022-09-06T10:02:26.167Z,101245.04
2022-09-06T10:05:23.434Z,101234.13
2022-09-06T10:08:16.707Z,101235.73
2022-09-06T10:11:12.784Z,101239.51
2022-09-06T10:14:21.822Z,101233.50
2022-09-06T10:17:22.807Z,101229.63
2022-09-06T10:20:16.824Z,101228.75
2022-09-06T10:23:17.596Z,101226.77
2022-09-06T10:26:19.734Z,101225.41
2022-09-06T10:29:12.242Z,101222.92
2022-09-06T10:32:18.926Z,101216.11
2022-09-06T10:35:22.188Z,101222.09
2022-09-06T10:38:26.367Z,101217.97
2022-09-06T10:41:41.718Z,101219.33
2022-09-06T10:47:39.093Z,101207.72
2022-09-06T10:50:40.343Z,101206.58
2022-09-06T10:53:41.372Z,101213.91
2022-09-06T10:56:41.561Z,101210.09
2022-09-06T11:02:45.525Z,101198.88
2022-09-06T11:05:42.663Z,101201.86
2022-09-06T11:11:45.978Z,101194.17
2022-09-06T11:14:40.162Z,101186.39
2022-09-06T11:17:41.415Z,101179.48
2022-09-06T11:20:38.442Z,101181.52
2022-09-06T11:23:49.564Z,101181.34
2022-09-06T11:26:47.001Z,101173.01
2022-09-06T11:29:44.011Z,101177.11
2022-09-06T11:32:43.489Z,101170.28
2022-09-06T11:35:36.436Z,101176.99
2022-09-06T11:38:30.412Z,101164.27
2022-09-06T11:41:23.171Z,101170.14
2022-09-06T11:44:35.365Z,101172.39
2022-09-06T11:47:44.623Z,101170.31
2022-09-06T11:51:06.864Z,101168.78
2022-09-06T11:54:22.321Z,101167.52
2022-09-06T11:57:23.366Z,101169.02
2022-09-06T12:00:24.168Z,101153.84
2022-09-06T12:04:05.981Z,101156.21
2022-09-06T12:07:13.094Z,101155.72
2022-09-06T12:10:51.051Z,101152.20
2022-09-06T12:13:54.137Z,101145.39
2022-09-06T12:17:29.437Z,101134.45
2022-09-06T12:20:53.215Z,101133.34
2022-09-06T12:23:45.810Z,101117.77
2022-09-06T12:27:09.631Z,101111.70
2022-09-06T12:30:04.574Z,101110.38
2022-09-06T12:32:57.377Z,101105.00
2022-09-06T12:35:56.835Z,101111.29
2022-09-06T12:39:00.675Z,101097.22
2022-09-06T12:41:57.236Z,101098.14
2022-09-06T12:44:54.177Z,101098.05
2022-09-06T12:47:46.767Z,101104.25
2022-09-06T12:50:40.634Z,101097.95
2022-09-06T12:53:32.328Z,101085.90
2022-09-06T12:56:25.788Z,101086.12
2022-09-06T12:59:20.755Z,101086.12
2022-09-06T13:02:19.462Z,101087.62
2022-09-06T13:05:13.747Z,101088.03
2022-09-06T13:08:07.512Z,101089.23
2022-09-06T13:11:01.045Z,101086.69
2022-09-06T13:13:56.065Z,101089.20
2022-09-06T13:16:50.803Z,101081.92
2022-09-06T13:19:45.493Z,101083.31
2022-09-06T13:22:50.876Z,101079.78
2022-09-06T13:25:53.560Z,101069.45
2022-09-06T13:28:45.458Z,101067.84
2022-09-06T13:31:38.378Z,101065.10
2022-09-06T13:34:32.948Z,101066.72
2022-09-06T13:37:27.464Z,101062.97
2022-09-06T13:41:07.009Z,101058.36
2022-09-06T13:44:01.300Z,101052.61
2022-09-06T13:46:57.060Z,101055.56
2022-09-06T13:49:48.702Z,101058.81
2022-09-06T13:52:40.700Z,101059.64
2022-09-06T13:55:34.989Z,101062.05
2022-09-06T13:58:26.907Z,101061.45
2022-09-06T14:01:19.307Z,101050.02
2022-09-06T14:04:16.571Z,101049.73
2022-09-06T14:07:09.342Z,101051.13
2022-09-06T14:10:01.383Z,101043.75
2022-09-06T14:12:54.801Z,101044.04
2022-09-06T14:15:47.218Z,101038.89
2022-09-06T14:18:40.798Z,101038.89
2022-09-06T14:21:34.982Z,101038.89
2022-09-06T14:24:27.180Z,101039.55
2022-09-06T14:27:20.943Z,101038.11
2022-09-06T14:30:15.524Z,101035.23
2022-09-06T14:33:08.042Z,101032.81
2022-09-06T14:36:00.546Z,101028.23
2022-09-06T14:38:52.925Z,101029.44
2022-09-06T14:41:44.907Z,101024.37
2022-09-06T14:44:38.212Z,101031.02
2022-09-06T14:47:32.129Z,101027.27
2022-09-06T14:50:24.148Z,101022.67
2022-09-06T14:53:38.829Z,101029.60
2022-09-06T14:56:30.728Z,101025.84
2022-09-06T14:59:23.312Z,101019.56
2022-09-06T15:02:15.811Z,101011.69
2022-09-06T15:05:09.219Z,101014.77
2022-09-06T15:08:02.598Z,101004.75
2022-09-06T15:10:58.575Z,101013.53
2022-09-06T15:13:50.126Z,101014.92
2022-09-06T15:16:42.211Z,101011.47
2022-09-06T15:19:36.623Z,101015.66
2022-09-06T15:22:29.548Z,101015.52
2022-09-06T15:25:22.454Z,101006.87
2022-09-06T15:28:15.603Z,101009.73
2022-09-06T15:31:08.572Z,101011.46
2022-09-06T15:34:02.994Z,101001.48
2022-09-06T15:36:56.821Z,101000.80
2022-09-06T15:39:48.925Z,101000.55
2022-09-06T15:42:41.493Z,100992.44
2022-09-06T15:45:35.954Z,100992.50
2022-09-06T15:48:29.952Z,100990.63
2022-09-06T15:51:22.959Z,100989.05
2022-09-06T15:54:16.831Z,100987.48
2022-09-06T15:57:10.691Z,100983.49
2022-09-06T16:00:03.450Z,100985.98
2022-09-06T16:02:58.410Z,100977.91
2022-09-06T16:09:06.120Z,100974.80
2022-09-06T16:11:58.595Z,100970.28
2022-09-06T16:14:51.238Z,100968.17
2022-09-06T16:17:43.477Z,100964.43
2022-09-06T16:20:39.965Z,100965.27
2022-09-06T16:23:32.711Z,100957.19
2022-09-06T16:26:26.405Z,100966.52
2022-09-06T16:29:20.445Z,100964.95
2022-09-06T16:32:12.285Z,100967.73
2022-09-06T16:35:06.176Z,100956.67
2022-09-06T16:37:58.355Z,100967.02
2022-09-06T16:40:51.202Z,100969.51
2022-09-06T16:43:44.005Z,100966.03
2022-09-06T16:46:36.291Z,100972.05
2022-09-06T16:49:29.169Z,100970.70
2022-09-06T16:52:21.447Z,100975.61
2022-09-06T16:55:13.549Z,100970.71
2022-09-06T16:58:05.646Z,100979.12
2022-09-06T17:00:58.397Z,100976.16
2022-09-06T17:03:51.616Z,100981.83
2022-09-06T17:06:45.961Z,100985.61
2022-09-06T17:09:38.691Z,100985.88
2022-09-06T17:12:32.896Z,100998.02
2022-09-06T17:15:24.899Z,101007.48
2022-09-06T17:18:17.562Z,101004.98
2022-09-06T17:21:10.397Z,101002.51
2022-09-06T17:24:03.215Z,101001.92
2022-09-06T17:26:56.190Z,101006.45
2022-09-06T17:29:48.652Z,101011.02
2022-09-06T17:32:40.686Z,101015.78
2022-09-06T17:35:33.971Z,101008.67
2022-09-06T17:38:26.387Z,101011.30
2022-09-06T17:41:22.678Z,101017.72
2022-09-06T17:44:17.037Z,101014.93
2022-09-06T17:47:14.085Z,101025.67
2022-09-06T17:50:07.940Z,101022.04
2022-09-06T17:53:00.535Z,101022.98
2022-09-06T17:55:53.220Z,101021.02
2022-09-06T17:58:46.218Z,101030.65
2022-09-06T18:01:41.435Z,101030.54
2022-09-06T18:04:34.519Z,101044.74
2022-09-06T18:07:26.903Z,101040.84
2022-09-06T18:10:20.171Z,101039.89
2022-09-06T18:13:12.391Z,101049.50
2022-09-06T18:16:05.268Z,101046.44
2022-09-06T18:18:59.409Z,101050.59
2022-09-06T18:21:52.065Z,101043.42
2022-09-06T18:24:44.499Z,101043.84
2022-09-06T18:27:37.666Z,101045.06
2022-09-06T18:30:31.543Z,101057.12
2022-09-06T18:33:25.781Z,101060.45
2022-09-06T18:36:19.702Z,101059.00
2022-09-06T18:39:13.509Z,101057.52
2022-09-06T18:42:11.185Z,101057.69
2022-09-06T18:45:03.876Z,101050.80
2022-09-06T18:47:57.383Z,101053.89
2022-09-06T18:50:49.724Z,101053.20
2022-09-06T18:53:44.793Z,101048.20
2022-09-06T18:56:37.130Z,101056.69
2022-09-06T18:59:29.976Z,101055.44
2022-09-06T19:02:23.727Z,101054.53
2022-09-06T19:05:15.677Z,101055.50
2022-09-06T19:08:08.851Z,101060.44
2022-09-06T19:11:07.784Z,101048.98
2022-09-06T19:14:00.687Z,101059.07
2022-09-06T19:16:54.315Z,101060.86
2022-09-06T19:19:46.281Z,101052.67
2022-09-06T19:22:36.675Z,101058.76
2022-09-06T19:25:29.783Z,101053.52
2022-09-06T19:28:21.763Z,101053.38
2022-09-06T19:31:15.937Z,101051.38
2022-09-06T19:34:07.992Z,101053.74
2022-09-06T19:37:00.374Z,101049.05
2022-09-06T19:39:52.807Z,101049.77
2022-09-06T19:42:44.881Z,101052.10
2022-09-06T19:45:41.366Z,101046.38
2022-09-06T19:48:34.021Z,101047.07
2022-09-06T19:51:27.337Z,101046.95
2022-09-06T19:54:20.508Z,101044.95
2022-09-06T19:57:13.345Z,101050.22
2022-09-06T20:00:07.801Z,101053.04
2022-09-06T20:03:06.517Z,101043.20
2022-09-06T20:06:02.824Z,101044.73
2022-09-06T20:08:56.836Z,101038.39
2022-09-06T20:11:49.948Z,101043.43
2022-09-06T20:14:42.397Z,101034.41
2022-09-06T20:17:34.657Z,101038.02
2022-09-06T20:20:27.419Z,101041.42
2022-09-06T20:23:19.657Z,101038.36
2022-09-06T20:26:13.765Z,101039.25
2022-09-06T20:29:06.976Z,101039.95
2022-09-06T20:31:58.791Z,101046.00
2022-09-06T20:34:51.064Z,101044.02
2022-09-06T20:37:43.330Z,101047.63
2022-09-06T20:40:34.059Z,101047.49
2022-09-06T20:43:26.635Z,101055.42
2022-09-06T20:46:21.552Z,101053.41
2022-09-06T20:49:15.981Z,101055.74
2022-09-06T20:52:08.186Z,101053.72
2022-09-06T20:54:58.083Z,101058.75
2022-09-06T20:57:51.765Z,101054.88
2022-09-06T21:00:44.368Z,101056.97
2022-09-06T21:03:40.763Z,101056.58
2022-09-06T21:06:35.770Z,101053.54
2022-09-06T21:09:28.891Z,101055.63
2022-09-06T21:12:20.932Z,101050.71
2022-09-06T21:15:12.409Z,101050.33
2022-09-06T21:18:04.923Z,101049.97
2022-09-06T21:21:02.017Z,101051.23
2022-09-06T21:23:55.728Z,101050.87
2022-09-06T21:26:48.324Z,101050.48
2022-09-06T21:29:42.613Z,101050.13
2022-09-06T21:32:35.400Z,101041.69
2022-09-06T21:35:27.740Z,101045.66
2022-09-06T21:38:18.838Z,101043.42
2022-09-06T21:41:14.893Z,101051.30
2022-09-06T21:44:09.263Z,101047.41
2022-09-06T21:47:01.783Z,101050.55
2022-09-06T21:49:54.523Z,101046.67
2022-09-06T21:52:47.260Z,101048.36
2022-09-06T21:55:39.371Z,101046.95
2022-09-06T21:58:32.789Z,101049.25
2022-09-06T22:01:26.071Z,101048.89
2022-09-06T22:04:19.731Z,101045.00
2022-09-06T22:07:11.533Z,101046.48
2022-09-06T22:10:03.955Z,101047.73
2022-09-06T22:12:56.924Z,101046.53
2022-09-06T22:15:49.492Z,101051.74
2022-09-06T22:18:43.262Z,101045.17
2022-09-06T22:21:36.139Z,101049.34
2022-09-06T22:24:28.537Z,101042.77
2022-09-06T22:27:20.142Z,101046.33
2022-09-06T22:30:14.936Z,101037.08
2022-09-06T22:33:07.647Z,101043.92
2022-09-06T22:36:00.779Z,101046.23
2022-09-06T22:38:57.835Z,101045.03
2022-09-06T22:41:50.777Z,101046.50
2022-09-06T22:44:42.057Z,101051.70
2022-09-06T22:47:34.664Z,101045.16
2022-09-06T22:50:27.571Z,101050.55
2022-09-06T22:53:21.612Z,101048.50
2022-09-06T22:56:13.732Z,101049.97
2022-09-06T22:59:06.728Z,101051.81
2022-09-06T23:01:59.162Z,101046.45
2022-09-06T23:04:51.961Z,101045.84
2022-09-06T23:07:43.839Z,101038.03
2022-09-06T23:10:40.371Z,101041.14
2022-09-06T23:13:32.511Z,101048.58
2022-09-06T23:16:25.851Z,101042.81
2022-09-06T23:19:18.816Z,101048.59
2022-09-06T23:22:11.857Z,101054.19
2022-09-06T23:25:04.225Z,101050.67
2022-09-06T23:27:57.135Z,101052.97
2022-09-06T23:30:47.608Z,101043.48
2022-09-06T23:33:40.559Z,101052.79
2022-09-06T23:36:33.268Z,101045.18
2022-09-06T23:39:26.197Z,101050.73
2022-09-06T23:42:19.284Z,101043.13
2022-09-06T23:45:13.364Z,101046.23
2022-09-06T23:48:06.728Z,101048.73
2022-09-06T23:50:59.362Z,101041.77
2022-09-06T23:53:51.628Z,101035.19
2022-09-06T23:56:43.880Z,101050.65
2022-09-06T23:59:35.362Z,101047.36
